createdAt,value
2017-06-17T00:02:11.851Z,0
2017-06-17T00:04:27.369Z,0
2017-06-17T00:06:51.402Z,0
2017-06-17T00:09:07.931Z,0
2017-06-17T00:11:31.942Z,0
2017-06-17T00:13:56.955Z,0
2017-06-17T00:16:21.960Z,0
2017-06-17T00:18:45.949Z,0
2017-06-17T00:23:17.956Z,0
2017-06-17T00:25:42.976Z,0
2017-06-17T00:28:06.280Z,0
2017-06-17T00:30:37.800Z,0
2017-06-17T00:32:54.356Z,0
2017-06-17T00:35:18.356Z,0
2017-06-17T00:37:44.353Z,0
2017-06-17T00:40:08.862Z,0
2017-06-17T00:42:34.843Z,0
2017-06-17T00:44:51.421Z,0
2017-06-17T00:47:15.332Z,0
2017-06-17T00:49:55.299Z,0
2017-06-17T00:52:21.287Z,0
2017-06-17T00:54:44.373Z,0
2017-06-17T00:59:09.235Z,0
2017-06-17T01:01:35.237Z,0
2017-06-17T01:03:59.211Z,0
2017-06-17T01:06:29.979Z,0
2017-06-17T01:08:45.500Z,0
2017-06-17T01:11:09.443Z,0
2017-06-17T01:13:40.995Z,0
2017-06-17T01:16:12.501Z,0
2017-06-17T01:18:30.005Z,0
2017-06-17T01:22:56.330Z,0
2017-06-17T01:25:20.293Z,0
2017-06-17T01:27:35.804Z,0
2017-06-17T01:30:06.649Z,0
2017-06-17T01:34:38.289Z,0
2017-06-17T01:37:04.241Z,0
2017-06-17T01:39:29.121Z,0
2017-06-17T01:41:53.067Z,0
2017-06-17T01:44:17.010Z,0
2017-06-17T01:46:33.484Z,0
2017-06-17T01:48:57.419Z,0
2017-06-17T01:51:13.907Z,0
2017-06-17T01:53:37.841Z,0
2017-06-17T01:55:55.351Z,0
2017-06-17T01:58:20.289Z,0
2017-06-17T02:00:44.212Z,0
2017-06-17T02:03:00.718Z,0
2017-06-17T02:05:24.661Z,0
2017-06-17T02:07:49.580Z,0
2017-06-17T02:12:16.843Z,0
2017-06-17T02:14:41.789Z,0
2017-06-17T02:17:06.733Z,0
2017-06-17T02:19:30.683Z,0
2017-06-17T02:21:54.593Z,0
2017-06-17T02:24:20.509Z,0
2017-06-17T02:26:44.417Z,0
2017-06-17T02:29:08.381Z,0
2017-06-17T02:31:23.842Z,0
2017-06-17T02:33:47.716Z,0
2017-06-17T02:36:11.629Z,0
2017-06-17T02:38:35.537Z,0
2017-06-17T02:41:08.169Z,0
2017-06-17T02:43:32.065Z,0
2017-06-17T02:45:57.923Z,4
2017-06-17T02:48:28.250Z,4
2017-06-17T02:52:29.990Z,8
2017-06-17T02:54:54.917Z,8
2017-06-17T02:57:34.799Z,8
2017-06-17T02:59:44.691Z,12
2017-06-17T03:02:08.581Z,16
2017-06-17T03:04:32.480Z,20
2017-06-17T03:06:56.363Z,28
2017-06-17T03:09:20.257Z,36
2017-06-17T03:11:44.128Z,48
2017-06-17T03:16:17.365Z,72
2017-06-17T03:20:43.588Z,104
2017-06-17T03:23:08.461Z,124
2017-06-17T03:25:32.346Z,144
2017-06-17T03:27:57.221Z,172
2017-06-17T03:30:27.937Z,204
2017-06-17T03:33:08.439Z,244
2017-06-17T03:35:31.530Z,280
2017-06-17T03:38:01.934Z,324
2017-06-17T03:40:26.807Z,372
2017-06-17T03:44:36.143Z,464
2017-06-17T03:47:07.913Z,524
2017-06-17T03:49:38.403Z,584
2017-06-17T03:52:04.283Z,648
2017-06-17T03:54:30.149Z,716
2017-06-17T03:56:52.501Z,784
2017-06-17T03:59:22.932Z,840
2017-06-17T04:01:46.853Z,908
2017-06-17T04:04:10.766Z,980
2017-06-17T04:06:35.683Z,1048
2017-06-17T04:09:07.424Z,1132
2017-06-17T04:11:23.958Z,1208
2017-06-17T04:13:48.879Z,1300
2017-06-17T04:16:04.373Z,1400
2017-06-17T04:18:29.327Z,1532
2017-06-17T04:20:43.013Z,1992
2017-06-17T04:24:52.526Z,2744
2017-06-17T04:27:16.668Z,2744
2017-06-17T04:29:47.916Z,3096
2017-06-17T04:32:13.380Z,3288
2017-06-17T04:34:29.021Z,3448
2017-06-17T04:36:54.766Z,3628
2017-06-17T04:39:03.678Z,3780
2017-06-17T04:41:28.655Z,4028
2017-06-17T04:43:54.775Z,4236
2017-06-17T04:46:21.029Z,4448
2017-06-17T04:48:55.162Z,4692
2017-06-17T04:51:05.517Z,4872
2017-06-17T04:53:33.129Z,5092
2017-06-17T04:57:34.665Z,5376
2017-06-17T05:01:36.923Z,5696
2017-06-17T05:03:56.444Z,5832
2017-06-17T05:06:23.577Z,5928
2017-06-17T05:09:04.691Z,6104
2017-06-17T05:11:31.999Z,6260
2017-06-17T05:15:34.750Z,6532
2017-06-17T05:19:29.032Z,6856
2017-06-17T05:22:03.225Z,7068
2017-06-17T05:24:30.882Z,7376
2017-06-17T05:26:59.593Z,7652
2017-06-17T05:29:26.324Z,8124
2017-06-17T05:31:59.836Z,8512
2017-06-17T05:34:35.301Z,8844
2017-06-17T05:38:30.838Z,9452
2017-06-17T05:40:56.171Z,9888
2017-06-17T05:45:00.750Z,10448
2017-06-17T05:47:44.855Z,10800
2017-06-17T05:50:27.868Z,11096
2017-06-17T05:54:31.051Z,11532
2017-06-17T05:58:34.345Z,11840
2017-06-17T06:01:08.468Z,11996
2017-06-17T06:04:55.102Z,12488
2017-06-17T06:08:59.231Z,13280
2017-06-17T06:11:34.688Z,13688
2017-06-17T06:14:03.295Z,14620
2017-06-17T06:16:31.954Z,15840
2017-06-17T06:19:01.677Z,17248
2017-06-17T06:21:12.098Z,18720
2017-06-17T06:23:39.716Z,20800
2017-06-17T06:26:14.229Z,24512
2017-06-17T06:28:43.035Z,27328
2017-06-17T06:32:47.337Z,30432
2017-06-17T06:35:06.518Z,31040
2017-06-17T06:37:41.902Z,17696
2017-06-17T06:40:26.413Z,10660
2017-06-17T06:42:55.169Z,10460
2017-06-17T06:45:31.368Z,10760
2017-06-17T06:47:57.842Z,10828
2017-06-17T06:50:24.187Z,10984
2017-06-17T06:52:58.275Z,10824
2017-06-17T06:55:33.254Z,10732
2017-06-17T06:58:14.709Z,10556
2017-06-17T07:00:32.904Z,10640
2017-06-17T07:03:01.567Z,10740
2017-06-17T07:05:29.110Z,10468
2017-06-17T07:07:47.016Z,10172
2017-06-17T07:10:14.369Z,10612
2017-06-17T07:12:34.117Z,11424
2017-06-17T07:16:54.661Z,14000
2017-06-17T07:19:20.748Z,17280
2017-06-17T07:21:44.908Z,18016
2017-06-17T07:24:10.394Z,17792
2017-06-17T07:26:36.423Z,19712
2017-06-17T07:29:03.486Z,21120
2017-06-17T07:31:30.514Z,21504
2017-06-17T07:34:11.406Z,19840
2017-06-17T07:36:29.940Z,16928
2017-06-17T07:38:47.479Z,15236
2017-06-17T07:41:15.540Z,14616
2017-06-17T07:43:41.578Z,14224
2017-06-17T07:46:07.638Z,13756
2017-06-17T07:48:35.685Z,13552
2017-06-17T07:51:08.409Z,13112
2017-06-17T07:53:34.478Z,12764
2017-06-17T07:57:46.181Z,12352
2017-06-17T08:00:27.042Z,12092
2017-06-17T08:03:00.058Z,11776
2017-06-17T08:07:21.401Z,11700
2017-06-17T08:11:51.786Z,11020
2017-06-17T08:14:17.826Z,4836
2017-06-17T08:16:43.827Z,4404
2017-06-17T08:19:09.722Z,11748
2017-06-17T08:23:48.115Z,11644
2017-06-17T08:28:17.350Z,11248
2017-06-17T08:30:43.321Z,11140
2017-06-17T08:33:09.296Z,5652
2017-06-17T08:35:35.285Z,6516
2017-06-17T08:38:09.024Z,7088
2017-06-17T08:40:34.858Z,8380
2017-06-17T08:42:52.077Z,6240
2017-06-17T08:45:18.715Z,5356
2017-06-17T08:47:45.298Z,5092
2017-06-17T08:50:11.770Z,5044
2017-06-17T08:52:39.166Z,4940
2017-06-17T08:54:55.982Z,4924
2017-06-17T08:57:21.247Z,5020
2017-06-17T08:59:47.509Z,5172
2017-06-17T09:02:04.195Z,5352
2017-06-17T09:04:20.912Z,5320
2017-06-17T09:06:46.081Z,4840
2017-06-17T09:09:11.237Z,5396
2017-06-17T09:11:36.396Z,4124
2017-06-17T09:13:54.055Z,6252
2017-06-17T09:16:10.680Z,7332
2017-06-17T09:18:27.350Z,5780
2017-06-17T09:20:59.406Z,6912
2017-06-17T09:23:16.059Z,6468
2017-06-17T09:25:32.712Z,7600
2017-06-17T09:28:12.402Z,7852
2017-06-17T09:30:29.103Z,6328
2017-06-17T09:32:45.850Z,5184
2017-06-17T09:35:11.082Z,5748
2017-06-17T09:37:38.401Z,7096
2017-06-17T09:40:03.705Z,6480
2017-06-17T09:42:20.579Z,7388
2017-06-17T09:44:46.029Z,7344
2017-06-17T09:47:11.513Z,5948
2017-06-17T09:49:37.018Z,7620
2017-06-17T09:52:02.463Z,6716
2017-06-17T09:54:27.947Z,6840
2017-06-17T09:56:53.370Z,7028
2017-06-17T09:59:18.806Z,6672
2017-06-17T10:01:44.250Z,6340
2017-06-17T10:04:01.100Z,6456
2017-06-17T10:06:26.452Z,6524
2017-06-17T10:08:43.273Z,7936
2017-06-17T10:11:08.578Z,8148
2017-06-17T10:17:37.765Z,6904
2017-06-17T10:20:03.115Z,6996
2017-06-17T10:22:28.407Z,7332
2017-06-17T10:24:39.482Z,8668
2017-06-17T10:27:04.765Z,8100
2017-06-17T10:29:30.077Z,7776
2017-06-17T10:31:55.379Z,7384
2017-06-17T10:34:20.671Z,7144
2017-06-17T10:36:45.996Z,6584
2017-06-17T10:39:11.296Z,6644
2017-06-17T10:41:36.596Z,6636
2017-06-17T10:44:01.892Z,6720
2017-06-17T10:46:27.208Z,6768
2017-06-17T10:48:52.523Z,5988
2017-06-17T10:51:17.817Z,5700
2017-06-17T10:53:43.083Z,5420
2017-06-17T10:56:08.382Z,5488
2017-06-17T10:58:33.635Z,5204
2017-06-17T11:00:50.385Z,5472
2017-06-17T11:03:15.639Z,5160
2017-06-17T11:05:32.369Z,5140
2017-06-17T11:07:49.073Z,5232
2017-06-17T11:10:14.257Z,5180
2017-06-17T11:12:30.908Z,4992
2017-06-17T11:14:56.075Z,5400
2017-06-17T11:17:21.221Z,5596
2017-06-17T11:19:46.402Z,5212
2017-06-17T11:22:11.575Z,5144
2017-06-17T11:26:29.902Z,5036
2017-06-17T11:28:55.071Z,5020
2017-06-17T11:31:05.300Z,4960
2017-06-17T11:33:30.464Z,4852
2017-06-17T11:35:55.594Z,4776
2017-06-17T11:38:12.239Z,4576
2017-06-17T11:40:29.885Z,4624
2017-06-17T11:42:55.986Z,4552
2017-06-17T11:45:12.619Z,4384
2017-06-17T11:47:37.736Z,4428
2017-06-17T11:52:05.012Z,4768
2017-06-17T11:54:21.635Z,4956
2017-06-17T11:56:46.686Z,5052
2017-06-17T11:59:11.700Z,4948
2017-06-17T12:01:36.783Z,4764
2017-06-17T12:04:01.863Z,4640
2017-06-17T12:06:26.968Z,4608
2017-06-17T12:08:52.042Z,4632
2017-06-17T12:11:00.089Z,4652
2017-06-17T12:13:25.149Z,4676
2017-06-17T12:15:50.165Z,4644
2017-06-17T12:18:06.727Z,4680
2017-06-17T12:20:31.719Z,4676
2017-06-17T12:22:56.743Z,4648
2017-06-17T12:25:21.791Z,4644
2017-06-17T12:27:38.316Z,4664
2017-06-17T12:29:54.955Z,4708
2017-06-17T12:32:20.024Z,4644
2017-06-17T12:34:45.053Z,4508
2017-06-17T12:37:01.654Z,4296
2017-06-17T12:39:26.723Z,4104
2017-06-17T12:41:43.337Z,4104
2017-06-17T12:44:08.409Z,4180
2017-06-17T12:46:33.469Z,4200
2017-06-17T12:48:50.015Z,4492
2017-06-17T12:51:15.014Z,4532
2017-06-17T12:53:40.057Z,4472
2017-06-17T12:55:56.601Z,4596
2017-06-17T12:58:21.626Z,4488
2017-06-17T13:00:38.168Z,4228
2017-06-17T13:03:03.226Z,4164
2017-06-17T13:05:19.798Z,4248
2017-06-17T13:07:36.327Z,4140
2017-06-17T13:10:01.356Z,4092
2017-06-17T13:12:17.864Z,4152
2017-06-17T13:14:42.831Z,4276
2017-06-17T13:17:07.845Z,4220
2017-06-17T13:21:25.980Z,3992
2017-06-17T13:23:42.512Z,3920
2017-06-17T13:28:09.613Z,3752
2017-06-17T13:30:34.563Z,3636
2017-06-17T13:32:44.732Z,3720
2017-06-17T13:35:01.222Z,3952
2017-06-17T13:37:26.208Z,4112
2017-06-17T13:39:42.685Z,4056
2017-06-17T13:41:52.925Z,3976
2017-06-17T13:44:17.925Z,3848
2017-06-17T13:46:42.919Z,3808
2017-06-17T13:48:59.372Z,3696
2017-06-17T13:51:24.340Z,3684
2017-06-17T13:53:49.315Z,3668
2017-06-17T13:56:14.252Z,3576
2017-06-17T13:58:22.202Z,3552
2017-06-17T14:02:48.827Z,3288
2017-06-17T14:05:13.822Z,3256
2017-06-17T14:07:38.731Z,3180
2017-06-17T14:09:55.165Z,3228
2017-06-17T14:12:20.058Z,3284
2017-06-17T14:14:44.995Z,3252
2017-06-17T14:17:09.912Z,3508
2017-06-17T14:19:34.808Z,3504
2017-06-17T14:21:51.240Z,3488
2017-06-17T14:24:07.619Z,3508
2017-06-17T14:26:32.546Z,3584
2017-06-17T14:28:57.437Z,3652
2017-06-17T14:31:22.367Z,3404
2017-06-17T14:33:47.301Z,3348
2017-06-17T14:36:12.206Z,3168
2017-06-17T14:38:28.649Z,2892
2017-06-17T14:40:53.552Z,2712
2017-06-17T14:43:18.462Z,2476
2017-06-17T14:45:34.922Z,2200
2017-06-17T14:47:59.796Z,2024
2017-06-17T14:50:24.702Z,1976
2017-06-17T14:52:32.610Z,2152
2017-06-17T14:54:49.015Z,2384
2017-06-17T14:57:05.383Z,2484
2017-06-17T14:59:21.750Z,2468
2017-06-17T15:01:46.590Z,2344
2017-06-17T15:04:11.388Z,2144
2017-06-17T15:06:36.201Z,2028
2017-06-17T15:08:52.520Z,1924
2017-06-17T15:11:08.812Z,1904
2017-06-17T15:13:33.563Z,1832
2017-06-17T15:15:58.320Z,1784
2017-06-17T15:18:23.065Z,1808
2017-06-17T15:20:47.793Z,1792
2017-06-17T15:23:13.553Z,1752
2017-06-17T15:25:38.305Z,1740
2017-06-17T15:28:03.013Z,1744
2017-06-17T15:30:27.753Z,1792
2017-06-17T15:32:52.531Z,1852
2017-06-17T15:35:17.256Z,1940
2017-06-17T15:37:42.036Z,1796
2017-06-17T15:42:00.387Z,1724
2017-06-17T15:44:25.168Z,1596
2017-06-17T15:46:41.472Z,1512
2017-06-17T15:48:57.714Z,1456
2017-06-17T15:51:13.962Z,1396
2017-06-17T15:55:40.708Z,1268
2017-06-17T15:58:06.452Z,1304
2017-06-17T16:00:31.176Z,1312
2017-06-17T16:02:55.833Z,1280
2017-06-17T16:05:18.986Z,1280
2017-06-17T16:07:43.671Z,612
2017-06-17T16:09:59.858Z,1124
2017-06-17T16:12:07.562Z,900
2017-06-17T16:14:32.198Z,736
2017-06-17T16:16:56.849Z,916
2017-06-17T16:19:22.512Z,908
2017-06-17T16:21:47.184Z,1256
2017-06-17T16:24:11.851Z,828
2017-06-17T16:26:28.036Z,976
2017-06-17T16:28:44.232Z,1040
2017-06-17T16:32:45.215Z,1248
2017-06-17T16:35:09.836Z,1284
2017-06-17T16:37:34.458Z,1144
2017-06-17T16:39:59.094Z,952
2017-06-17T16:42:23.710Z,1336
2017-06-17T16:44:49.305Z,1264
2017-06-17T16:47:13.893Z,1188
2017-06-17T16:49:38.511Z,1108
2017-06-17T16:51:54.596Z,1056
2017-06-17T16:54:10.724Z,1004
2017-06-17T16:56:26.843Z,964
2017-06-17T16:58:51.346Z,944
2017-06-17T17:01:15.885Z,924
2017-06-17T17:03:40.430Z,868
2017-06-17T17:06:04.974Z,856
2017-06-17T17:08:29.512Z,828
2017-06-17T17:10:55.046Z,792
2017-06-17T17:12:57.150Z,784
2017-06-17T17:15:21.707Z,772
2017-06-17T17:17:46.245Z,772
2017-06-17T17:20:10.721Z,760
2017-06-17T17:22:35.194Z,756
2017-06-17T17:24:59.733Z,768
2017-06-17T17:27:24.249Z,736
2017-06-17T17:29:48.776Z,700
2017-06-17T17:32:04.844Z,700
2017-06-17T17:34:20.897Z,688
2017-06-17T17:36:45.430Z,684
2017-06-17T17:39:09.946Z,696
2017-06-17T17:41:34.466Z,684
2017-06-17T17:43:58.955Z,652
2017-06-17T17:46:23.471Z,596
2017-06-17T17:48:39.525Z,572
2017-06-17T17:50:55.566Z,540
2017-06-17T17:53:20.068Z,508
2017-06-17T17:55:44.587Z,432
2017-06-17T17:58:09.069Z,364
2017-06-17T18:00:25.125Z,344
2017-06-17T18:02:41.172Z,348
2017-06-17T18:04:57.173Z,328
2017-06-17T18:07:21.664Z,324
2017-06-17T18:09:46.147Z,304
2017-06-17T18:12:10.630Z,272
2017-06-17T18:14:35.109Z,260
2017-06-17T18:20:37.392Z,240
2017-06-17T18:23:01.885Z,216
2017-06-17T18:27:27.767Z,168
2017-06-17T18:29:52.229Z,148
2017-06-17T18:32:16.688Z,140
2017-06-17T18:36:42.591Z,140
2017-06-17T18:39:06.991Z,132
2017-06-17T18:41:31.359Z,116
2017-06-17T18:43:55.793Z,116
2017-06-17T18:46:20.210Z,108
2017-06-17T18:48:44.744Z,104
2017-06-17T18:51:09.230Z,96
2017-06-17T18:53:33.738Z,92
2017-06-17T18:55:58.117Z,84
2017-06-17T18:58:22.544Z,76
2017-06-17T19:00:46.962Z,72
2017-06-17T19:03:02.888Z,72
2017-06-17T19:05:27.267Z,60
2017-06-17T19:07:51.660Z,60
2017-06-17T19:09:59.122Z,56
2017-06-17T19:12:23.501Z,48
2017-06-17T19:14:47.895Z,40
2017-06-17T19:17:12.280Z,32
2017-06-17T19:19:36.648Z,28
2017-06-17T19:22:01.016Z,28
2017-06-17T19:24:25.318Z,24
2017-06-17T19:26:41.210Z,24
2017-06-17T19:28:57.109Z,20
2017-06-17T19:31:13.004Z,16
2017-06-17T19:33:28.899Z,16
2017-06-17T19:35:44.799Z,12
2017-06-17T19:38:09.146Z,12
2017-06-17T19:40:16.609Z,8
2017-06-17T19:42:40.944Z,4
2017-06-17T19:45:05.275Z,4
2017-06-17T19:47:29.649Z,4
2017-06-17T19:49:54.003Z,4
2017-06-17T19:52:18.349Z,0
2017-06-17T19:54:42.695Z,4
2017-06-17T19:57:07.047Z,0
2017-06-17T19:59:31.405Z,0
2017-06-17T20:03:57.223Z,0
2017-06-17T20:06:21.523Z,0
2017-06-17T20:08:45.837Z,0
2017-06-17T20:11:10.175Z,0
2017-06-17T20:13:34.496Z,0
2017-06-17T20:15:58.802Z,0
2017-06-17T20:18:23.126Z,0
2017-06-17T20:20:38.977Z,0
2017-06-17T20:22:54.825Z,0
2017-06-17T20:27:20.507Z,0
2017-06-17T20:29:44.826Z,0
2017-06-17T20:32:09.114Z,0
2017-06-17T20:34:33.414Z,0
2017-06-17T20:36:57.702Z,0
2017-06-17T20:39:21.960Z,0
2017-06-17T20:41:46.282Z,0
2017-06-17T20:44:02.089Z,0
2017-06-17T20:46:17.908Z,0
2017-06-17T20:48:42.174Z,0
2017-06-17T20:51:06.452Z,0
2017-06-17T20:53:30.716Z,0
2017-06-17T20:55:46.558Z,0
2017-06-17T20:58:10.834Z,0
2017-06-17T21:00:35.101Z,0
2017-06-17T21:02:59.335Z,0
2017-06-17T21:05:23.603Z,0
2017-06-17T21:07:47.862Z,0
2017-06-17T21:10:12.108Z,0
2017-06-17T21:12:27.937Z,0
2017-06-17T21:14:52.168Z,0
2017-06-17T21:17:16.434Z,0
2017-06-17T21:19:40.640Z,0
2017-06-17T21:21:50.623Z,0
2017-06-17T21:24:00.588Z,0
2017-06-17T21:26:24.853Z,0
2017-06-17T21:28:34.844Z,0
2017-06-17T21:30:44.795Z,0
2017-06-17T21:33:00.615Z,0
2017-06-17T21:35:24.826Z,0
2017-06-17T21:37:40.611Z,0
2017-06-17T21:40:04.864Z,0
2017-06-17T21:42:29.077Z,0
2017-06-17T21:44:44.852Z,0
2017-06-17T21:47:09.071Z,0
2017-06-17T21:49:24.840Z,0
2017-06-17T21:51:48.993Z,0
2017-06-17T21:54:13.164Z,0
2017-06-17T21:56:37.368Z,0
2017-06-17T21:59:01.524Z,0
2017-06-17T22:01:25.748Z,0
2017-06-17T22:03:49.970Z,0
2017-06-17T22:06:14.201Z,0
2017-06-17T22:08:38.424Z,0
2017-06-17T22:11:02.643Z,0
2017-06-17T22:13:18.351Z,0
2017-06-17T22:15:34.110Z,0
2017-06-17T22:17:58.270Z,0
2017-06-17T22:20:14.010Z,0
2017-06-17T22:22:38.195Z,0
2017-06-17T22:25:02.381Z,0
2017-06-17T22:29:03.176Z,0
2017-06-17T22:31:27.376Z,0
2017-06-17T22:33:43.067Z,0
2017-06-17T22:36:07.227Z,0
2017-06-17T22:38:31.371Z,0
2017-06-17T22:40:47.094Z,0
2017-06-17T22:43:11.294Z,0
2017-06-17T22:45:35.496Z,0
2017-06-17T22:47:59.725Z,0
2017-06-17T22:50:23.955Z,0
2017-06-17T22:52:48.062Z,0
2017-06-17T22:55:12.244Z,0
2017-06-17T22:57:27.928Z,0
2017-06-17T22:59:52.137Z,0
2017-06-17T23:02:07.896Z,0
2017-06-17T23:04:32.132Z,0
2017-06-17T23:06:56.347Z,0
2017-06-17T23:09:20.572Z,0
2017-06-17T23:11:44.780Z,0
2017-06-17T23:13:52.057Z,0
2017-06-17T23:16:16.260Z,0
2017-06-17T23:18:40.440Z,0
2017-06-17T23:21:04.656Z,0
2017-06-17T23:23:20.403Z,0
2017-06-17T23:25:44.617Z,0
2017-06-17T23:28:00.384Z,0
2017-06-17T23:30:24.575Z,0
2017-06-17T23:32:40.315Z,0
2017-06-17T23:35:04.477Z,0
2017-06-17T23:37:28.657Z,0
2017-06-17T23:39:52.869Z,0
2017-06-17T23:42:17.066Z,0
2017-06-17T23:44:41.266Z,0
2017-06-17T23:46:57.022Z,0
2017-06-17T23:49:21.207Z,0
2017-06-17T23:51:45.342Z,0
2017-06-17T23:54:01.048Z,0
2017-06-17T23:56:08.334Z,0
2017-06-17T23:58:32.521Z,0
